sensor_id;sensor_type;location;lat;lon;timestamp;pressure;altitude;pressure_sealevel;temperature;humidity
26937;BME280;14495;48.116;11.676;2023-09-08T00:01:45;95859.19;;;12.38;100.00
26937;BME280;14495;48.116;11.676;2023-09-08T00:04:10;95856.47;;;12.40;100.00
26937;BME280;14495;48.116;11.676;2023-09-08T00:06:36;95853.25;;;12.49;100.00
26937;BME280;14495;48.116;11.676;2023-09-08T00:09:03;95852.50;;;12.47;100.00
26937;BME280;14495;48.116;11.676;2023-09-08T00:11:28;95851.31;;;12.38;100.00
26937;BME280;14495;48.116;11.676;2023-09-08T00:13:54;95853.94;;;12.38;100.00
26937;BME280;14495;48.116;11.676;2023-09-08T00:16:19;95854.38;;;12.45;100.00
26937;BME280;14495;48.116;11.676;2023-09-08T00:18:44;95850.59;;;12.36;100.00
26937;BME280;14495;48.116;11.676;2023-09-08T00:21:10;95861.94;;;12.36;100.00
26937;BME280;14495;48.116;11.676;2023-09-08T00:23:38;95858.56;;;12.34;100.00
26937;BME280;14495;48.116;11.676;2023-09-08T00:26:06;95850.34;;;12.26;100.00
26937;BME280;14495;48.116;11.676;2023-09-08T00:28:31;95849.72;;;12.23;100.00
26937;BME280;14495;48.116;11.676;2023-09-08T00:30:57;95848.88;;;12.22;100.00
26937;BME280;14495;48.116;11.676;2023-09-08T00:33:24;95843.56;;;12.24;100.00
26937;BME280;14495;48.116;11.676;2023-09-08T00:35:50;95846.16;;;12.24;100.00
26937;BME280;14495;48.116;11.676;2023-09-08T00:38:16;95848.53;;;12.14;100.00
26937;BME280;14495;48.116;11.676;2023-09-08T00:40:41;95843.19;;;12.15;100.00
26937;BME280;14495;48.116;11.676;2023-09-08T00:43:06;95848.00;;;12.09;100.00
26937;BME280;14495;48.116;11.676;2023-09-08T00:45:37;95848.19;;;12.06;100.00
26937;BME280;14495;48.116;11.676;2023-09-08T00:48:04;95836.88;;;12.05;100.00
26937;BME280;14495;48.116;11.676;2023-09-08T00:50:29;95844.75;;;12.05;100.00
26937;BME280;14495;48.116;11.676;2023-09-08T00:52:57;95844.66;;;12.07;100.00
26937;BME280;14495;48.116;11.676;2023-09-08T00:55:23;95845.25;;;11.97;100.00
26937;BME280;14495;48.116;11.676;2023-09-08T00:57:48;95847.31;;;11.92;100.00
26937;BME280;14495;48.116;11.676;2023-09-08T01:00:14;95845.63;;;11.91;100.00
26937;BME280;14495;48.116;11.676;2023-09-08T01:02:42;95850.28;;;11.86;100.00
26937;BME280;14495;48.116;11.676;2023-09-08T01:05:10;95841.50;;;11.87;100.00
26937;BME280;14495;48.116;11.676;2023-09-08T01:07:35;95851.03;;;11.88;100.00
26937;BME280;14495;48.116;11.676;2023-09-08T01:10:01;95843.56;;;11.82;100.00
26937;BME280;14495;48.116;11.676;2023-09-08T01:12:29;95831.94;;;11.86;100.00
26937;BME280;14495;48.116;11.676;2023-09-08T01:14:55;95843.38;;;11.85;100.00
26937;BME280;14495;48.116;11.676;2023-09-08T01:17:20;95843.66;;;11.80;100.00
26937;BME280;14495;48.116;11.676;2023-09-08T01:19:47;95846.63;;;11.89;100.00
26937;BME280;14495;48.116;11.676;2023-09-08T01:25:27;95841.53;;;11.73;100.00
26937;BME280;14495;48.116;11.676;2023-09-08T01:27:55;95842.38;;;11.73;100.00
26937;BME280;14495;48.116;11.676;2023-09-08T01:30:21;95850.50;;;11.69;100.00
26937;BME280;14495;48.116;11.676;2023-09-08T01:32:48;95845.75;;;11.61;100.00
26937;BME280;14495;48.116;11.676;2023-09-08T01:35:14;95844.72;;;11.64;100.00
26937;BME280;14495;48.116;11.676;2023-09-08T01:37:49;95839.56;;;11.62;100.00
26937;BME280;14495;48.116;11.676;2023-09-08T01:40:14;95845.22;;;11.56;100.00
26937;BME280;14495;48.116;11.676;2023-09-08T01:42:40;95850.75;;;11.51;100.00
26937;BME280;14495;48.116;11.676;2023-09-08T01:45:06;95847.91;;;11.54;100.00
26937;BME280;14495;48.116;11.676;2023-09-08T01:47:32;95854.84;;;11.55;100.00
26937;BME280;14495;48.116;11.676;2023-09-08T01:49:58;95849.63;;;11.55;100.00
26937;BME280;14495;48.116;11.676;2023-09-08T01:52:24;95839.69;;;11.60;100.00
26937;BME280;14495;48.116;11.676;2023-09-08T01:54:50;95834.75;;;11.56;100.00
26937;BME280;14495;48.116;11.676;2023-09-08T01:57:15;95840.28;;;11.51;100.00
26937;BME280;14495;48.116;11.676;2023-09-08T01:59:40;95835.50;;;11.44;100.00
26937;BME280;14495;48.116;11.676;2023-09-08T02:02:06;95837.19;;;11.45;100.00
26937;BME280;14495;48.116;11.676;2023-09-08T02:04:32;95833.84;;;11.43;100.00
26937;BME280;14495;48.116;11.676;2023-09-08T02:06:57;95830.25;;;11.44;100.00
26937;BME280;14495;48.116;11.676;2023-09-08T02:09:33;95828.13;;;11.50;100.00
26937;BME280;14495;48.116;11.676;2023-09-08T02:11:59;95832.44;;;11.51;100.00
26937;BME280;14495;48.116;11.676;2023-09-08T02:14:24;95825.16;;;11.42;100.00
26937;BME280;14495;48.116;11.676;2023-09-08T02:16:50;95828.50;;;11.44;100.00
26937;BME280;14495;48.116;11.676;2023-09-08T02:19:15;95824.66;;;11.50;100.00
26937;BME280;14495;48.116;11.676;2023-09-08T02:21:43;95830.75;;;11.36;100.00
26937;BME280;14495;48.116;11.676;2023-09-08T02:24:08;95833.56;;;11.33;100.00
26937;BME280;14495;48.116;11.676;2023-09-08T02:26:34;95834.31;;;11.35;100.00
26937;BME280;14495;48.116;11.676;2023-09-08T02:29:04;95838.03;;;11.31;100.00
26937;BME280;14495;48.116;11.676;2023-09-08T02:31:29;95840.13;;;11.26;100.00
26937;BME280;14495;48.116;11.676;2023-09-08T02:33:57;95835.41;;;11.31;100.00
26937;BME280;14495;48.116;11.676;2023-09-08T02:36:22;95838.16;;;11.29;100.00
26937;BME280;14495;48.116;11.676;2023-09-08T02:38:54;95835.25;;;11.34;100.00
26937;BME280;14495;48.116;11.676;2023-09-08T02:41:20;95832.72;;;11.32;100.00
26937;BME280;14495;48.116;11.676;2023-09-08T02:43:46;95835.25;;;11.34;100.00
26937;BME280;14495;48.116;11.676;2023-09-08T02:46:12;95833.50;;;11.20;100.00
26937;BME280;14495;48.116;11.676;2023-09-08T02:48:38;95830.56;;;11.25;100.00
26937;BME280;14495;48.116;11.676;2023-09-08T02:51:03;95827.41;;;11.19;100.00
26937;BME280;14495;48.116;11.676;2023-09-08T02:53:28;95827.41;;;11.19;100.00
26937;BME280;14495;48.116;11.676;2023-09-08T02:55:58;95826.66;;;11.17;100.00
26937;BME280;14495;48.116;11.676;2023-09-08T02:58:24;95827.03;;;11.26;100.00
26937;BME280;14495;48.116;11.676;2023-09-08T03:00:49;95830.41;;;11.28;100.00
26937;BME280;14495;48.116;11.676;2023-09-08T03:03:16;95833.28;;;11.23;100.00
26937;BME280;14495;48.116;11.676;2023-09-08T03:05:42;95833.94;;;11.27;100.00
26937;BME280;14495;48.116;11.676;2023-09-08T03:08:07;95832.63;;;11.19;100.00
26937;BME280;14495;48.116;11.676;2023-09-08T03:10:33;95827.13;;;11.10;100.00
26937;BME280;14495;48.116;11.676;2023-09-08T03:13:02;95820.75;;;11.14;100.00
26937;BME280;14495;48.116;11.676;2023-09-08T03:15:27;95829.66;;;11.11;100.00
26937;BME280;14495;48.116;11.676;2023-09-08T03:17:57;95827.03;;;11.11;100.00
26937;BME280;14495;48.116;11.676;2023-09-08T03:20:24;95824.34;;;11.13;100.00
26937;BME280;14495;48.116;11.676;2023-09-08T03:22:51;95826.00;;;11.14;100.00
26937;BME280;14495;48.116;11.676;2023-09-08T03:25:16;95827.78;;;11.13;100.00
26937;BME280;14495;48.116;11.676;2023-09-08T03:27:42;95835.06;;;11.08;100.00
26937;BME280;14495;48.116;11.676;2023-09-08T03:30:10;95832.75;;;11.03;100.00
26937;BME280;14495;48.116;11.676;2023-09-08T03:32:36;95832.09;;;11.00;100.00
26937;BME280;14495;48.116;11.676;2023-09-08T03:35:04;95832.47;;;10.94;100.00
26937;BME280;14495;48.116;11.676;2023-09-08T03:37:33;95832.91;;;11.00;100.00
26937;BME280;14495;48.116;11.676;2023-09-08T03:39:59;95827.88;;;10.97;100.00
26937;BME280;14495;48.116;11.676;2023-09-08T03:42:24;95838.63;;;10.93;100.00
26937;BME280;14495;48.116;11.676;2023-09-08T03:44:51;95836.00;;;10.93;100.00
26937;BME280;14495;48.116;11.676;2023-09-08T03:47:17;95838.97;;;11.01;100.00
26937;BME280;14495;48.116;11.676;2023-09-08T03:49:42;95830.47;;;10.97;100.00
26937;BME280;14495;48.116;11.676;2023-09-08T03:52:07;95830.22;;;11.02;100.00
26937;BME280;14495;48.116;11.676;2023-09-08T03:54:33;95834.88;;;10.97;100.00
26937;BME280;14495;48.116;11.676;2023-09-08T03:56:59;95826.38;;;10.93;100.00
26937;BME280;14495;48.116;11.676;2023-09-08T03:59:24;95828.16;;;10.93;100.00
26937;BME280;14495;48.116;11.676;2023-09-08T04:01:50;95834.78;;;10.98;100.00
26937;BME280;14495;48.116;11.676;2023-09-08T04:04:15;95833.94;;;10.98;100.00
26937;BME280;14495;48.116;11.676;2023-09-08T04:06:41;95830.94;;;10.90;100.00
26937;BME280;14495;48.116;11.676;2023-09-08T04:09:06;95825.91;;;10.87;100.00
26937;BME280;14495;48.116;11.676;2023-09-08T04:11:32;95835.50;;;10.86;100.00
26937;BME280;14495;48.116;11.676;2023-09-08T04:13:57;95834.50;;;10.89;100.00
26937;BME280;14495;48.116;11.676;2023-09-08T04:16:23;95841.78;;;10.83;100.00
26937;BME280;14495;48.116;11.676;2023-09-08T04:18:48;95836.47;;;10.85;100.00
26937;BME280;14495;48.116;11.676;2023-09-08T04:21:13;95835.97;;;10.78;100.00
26937;BME280;14495;48.116;11.676;2023-09-08T04:23:39;95833.19;;;10.81;100.00
26937;BME280;14495;48.116;11.676;2023-09-08T04:26:04;95829.53;;;10.84;100.00
26937;BME280;14495;48.116;11.676;2023-09-08T04:28:30;95832.72;;;10.75;100.00
26937;BME280;14495;48.116;11.676;2023-09-08T04:30:55;95823.94;;;10.76;100.00
26937;BME280;14495;48.116;11.676;2023-09-08T04:33:20;95824.78;;;10.76;100.00
26937;BME280;14495;48.116;11.676;2023-09-08T04:35:45;95826.19;;;10.82;100.00
26937;BME280;14495;48.116;11.676;2023-09-08T04:38:11;95831.88;;;10.74;100.00
26937;BME280;14495;48.116;11.676;2023-09-08T04:40:39;95831.03;;;10.74;100.00
26937;BME280;14495;48.116;11.676;2023-09-08T04:43:05;95832.53;;;10.78;100.00
26937;BME280;14495;48.116;11.676;2023-09-08T04:45:30;95841.88;;;10.82;100.00
26937;BME280;14495;48.116;11.676;2023-09-08T04:47:55;95845.69;;;10.76;100.00
26937;BME280;14495;48.116;11.676;2023-09-08T04:50:21;95838.13;;;10.86;100.00
26937;BME280;14495;48.116;11.676;2023-09-08T04:52:46;95848.91;;;10.96;100.00
26937;BME280;14495;48.116;11.676;2023-09-08T04:55:11;95843.13;;;11.05;100.00
26937;BME280;14495;48.116;11.676;2023-09-08T04:57:37;95839.19;;;11.12;100.00
26937;BME280;14495;48.116;11.676;2023-09-08T05:00:02;95841.25;;;11.07;100.00
26937;BME280;14495;48.116;11.676;2023-09-08T05:02:28;95847.03;;;11.12;100.00
26937;BME280;14495;48.116;11.676;2023-09-08T05:04:53;95843.38;;;11.15;100.00
26937;BME280;14495;48.116;11.676;2023-09-08T05:07:19;95844.97;;;11.17;100.00
26937;BME280;14495;48.116;11.676;2023-09-08T05:09:44;95841.59;;;11.15;100.00
26937;BME280;14495;48.116;11.676;2023-09-08T05:12:12;95855.91;;;11.24;100.00
26937;BME280;14495;48.116;11.676;2023-09-08T05:14:37;95841.13;;;11.23;100.00
26937;BME280;14495;48.116;11.676;2023-09-08T05:17:03;95844.03;;;11.33;100.00
26937;BME280;14495;48.116;11.676;2023-09-08T05:19:30;95850.66;;;11.38;100.00
26937;BME280;14495;48.116;11.676;2023-09-08T05:21:55;95853.72;;;11.45;100.00
26937;BME280;14495;48.116;11.676;2023-09-08T05:24:21;95853.88;;;11.56;100.00
26937;BME280;14495;48.116;11.676;2023-09-08T05:26:46;95853.72;;;11.59;100.00
26937;BME280;14495;48.116;11.676;2023-09-08T05:29:12;95858.19;;;11.72;100.00
26937;BME280;14495;48.116;11.676;2023-09-08T05:31:38;95861.53;;;11.74;100.00
26937;BME280;14495;48.116;11.676;2023-09-08T05:34:03;95854.25;;;11.79;100.00
26937;BME280;14495;48.116;11.676;2023-09-08T05:36:29;95863.66;;;11.82;100.00
26937;BME280;14495;48.116;11.676;2023-09-08T05:38:55;95854.44;;;11.90;100.00
26937;BME280;14495;48.116;11.676;2023-09-08T05:41:20;95863.19;;;12.04;100.00
26937;BME280;14495;48.116;11.676;2023-09-08T05:43:46;95861.75;;;12.12;100.00
26937;BME280;14495;48.116;11.676;2023-09-08T05:46:11;95863.66;;;12.23;100.00
26937;BME280;14495;48.116;11.676;2023-09-08T05:48:38;95866.94;;;12.40;100.00
26937;BME280;14495;48.116;11.676;2023-09-08T05:51:03;95866.34;;;12.49;100.00
26937;BME280;14495;48.116;11.676;2023-09-08T05:53:30;95871.72;;;12.60;100.00
26937;BME280;14495;48.116;11.676;2023-09-08T05:55:55;95868.09;;;12.75;100.00
26937;BME280;14495;48.116;11.676;2023-09-08T05:58:21;95867.03;;;12.91;100.00
26937;BME280;14495;48.116;11.676;2023-09-08T06:00:46;95872.50;;;13.13;100.00
26937;BME280;14495;48.116;11.676;2023-09-08T06:03:11;95865.72;;;13.37;100.00
26937;BME280;14495;48.116;11.676;2023-09-08T06:05:37;95872.47;;;13.65;100.00
26937;BME280;14495;48.116;11.676;2023-09-08T06:08:02;95869.63;;;14.53;100.00
26937;BME280;14495;48.116;11.676;2023-09-08T06:10:28;95870.06;;;16.40;100.00
26937;BME280;14495;48.116;11.676;2023-09-08T06:12:53;95873.03;;;18.43;100.00
26937;BME280;14495;48.116;11.676;2023-09-08T06:15:18;95859.38;;;20.82;100.00
26937;BME280;14495;48.116;11.676;2023-09-08T06:17:44;95865.81;;;22.11;100.00
26937;BME280;14495;48.116;11.676;2023-09-08T06:20:10;95865.81;;;23.03;100.00
26937;BME280;14495;48.116;11.676;2023-09-08T06:22:35;95869.59;;;23.58;100.00
26937;BME280;14495;48.116;11.676;2023-09-08T06:25:00;95861.31;;;24.31;100.00
26937;BME280;14495;48.116;11.676;2023-09-08T06:27:26;95866.56;;;25.02;96.98
26937;BME280;14495;48.116;11.676;2023-09-08T06:29:52;95871.03;;;25.63;94.05
26937;BME280;14495;48.116;11.676;2023-09-08T06:32:18;95870.56;;;25.89;94.13
26937;BME280;14495;48.116;11.676;2023-09-08T06:34:43;95876.38;;;24.87;92.60
26937;BME280;14495;48.116;11.676;2023-09-08T06:37:08;95877.19;;;26.89;88.30
26937;BME280;14495;48.116;11.676;2023-09-08T06:39:34;95875.13;;;26.91;85.77
26937;BME280;14495;48.116;11.676;2023-09-08T06:41:59;95876.41;;;25.93;89.76
26937;BME280;14495;48.116;11.676;2023-09-08T06:44:24;95878.75;;;27.76;82.45
26937;BME280;14495;48.116;11.676;2023-09-08T06:46:50;95877.38;;;28.29;81.66
26937;BME280;14495;48.116;11.676;2023-09-08T06:49:16;95884.97;;;26.84;81.27
26937;BME280;14495;48.116;11.676;2023-09-08T06:51:42;95886.38;;;26.29;84.37
26937;BME280;14495;48.116;11.676;2023-09-08T06:54:07;95888.63;;;25.95;84.73
26937;BME280;14495;48.116;11.676;2023-09-08T06:56:32;95887.16;;;24.08;91.82
26937;BME280;14495;48.116;11.676;2023-09-08T06:58:58;95890.13;;;22.91;100.00
26937;BME280;14495;48.116;11.676;2023-09-08T07:01:24;95882.38;;;21.36;100.00
26937;BME280;14495;48.116;11.676;2023-09-08T07:03:49;95877.34;;;21.33;100.00
26937;BME280;14495;48.116;11.676;2023-09-08T07:06:15;95877.34;;;22.28;100.00
26937;BME280;14495;48.116;11.676;2023-09-08T07:08:41;95884.50;;;23.11;100.00
26937;BME280;14495;48.116;11.676;2023-09-08T07:11:06;95885.13;;;25.19;100.00
26937;BME280;14495;48.116;11.676;2023-09-08T07:13:31;95880.88;;;25.33;96.99
26937;BME280;14495;48.116;11.676;2023-09-08T07:15:57;95893.47;;;26.36;91.01
26937;BME280;14495;48.116;11.676;2023-09-08T07:18:22;95882.16;;;27.14;86.43
26937;BME280;14495;48.116;11.676;2023-09-08T07:20:48;95886.38;;;27.02;84.32
26937;BME280;14495;48.116;11.676;2023-09-08T07:23:13;95881.53;;;27.90;82.16
26937;BME280;14495;48.116;11.676;2023-09-08T07:25:39;95879.94;;;28.50;79.08
26937;BME280;14495;48.116;11.676;2023-09-08T07:28:04;95880.28;;;29.09;77.14
26937;BME280;14495;48.116;11.676;2023-09-08T07:30:31;95886.56;;;27.78;79.70
26937;BME280;14495;48.116;11.676;2023-09-08T07:32:57;95881.16;;;25.38;85.71
26937;BME280;14495;48.116;11.676;2023-09-08T07:35:23;95871.25;;;24.15;94.52
26937;BME280;14495;48.116;11.676;2023-09-08T07:37:49;95876.59;;;22.44;100.00
26937;BME280;14495;48.116;11.676;2023-09-08T07:40:14;95884.69;;;22.26;100.00
26937;BME280;14495;48.116;11.676;2023-09-08T07:42:40;95876.75;;;21.99;100.00
26937;BME280;14495;48.116;11.676;2023-09-08T07:45:06;95880.47;;;21.46;100.00
26937;BME280;14495;48.116;11.676;2023-09-08T07:47:31;95880.00;;;21.33;100.00
26937;BME280;14495;48.116;11.676;2023-09-08T07:50:20;95886.50;;;21.56;100.00
26937;BME280;14495;48.116;11.676;2023-09-08T07:52:46;95886.44;;;21.48;100.00
26937;BME280;14495;48.116;11.676;2023-09-08T07:55:12;95887.69;;;21.36;100.00
26937;BME280;14495;48.116;11.676;2023-09-08T07:57:37;95888.56;;;21.71;100.00
26937;BME280;14495;48.116;11.676;2023-09-08T08:00:03;95886.84;;;21.61;100.00
26937;BME280;14495;48.116;11.676;2023-09-08T08:02:31;95884.13;;;21.79;100.00
26937;BME280;14495;48.116;11.676;2023-09-08T08:04:56;95886.00;;;21.87;100.00
26937;BME280;14495;48.116;11.676;2023-09-08T08:07:22;95885.31;;;21.85;100.00
26937;BME280;14495;48.116;11.676;2023-09-08T08:09:47;95891.22;;;21.71;100.00
26937;BME280;14495;48.116;11.676;2023-09-08T08:12:13;95890.41;;;21.70;100.00
26937;BME280;14495;48.116;11.676;2023-09-08T08:14:40;95888.84;;;21.59;100.00
26937;BME280;14495;48.116;11.676;2023-09-08T08:17:06;95889.72;;;21.68;100.00
26937;BME280;14495;48.116;11.676;2023-09-08T08:19:34;95893.03;;;21.62;100.00
26937;BME280;14495;48.116;11.676;2023-09-08T08:21:59;95884.44;;;21.24;100.00
26937;BME280;14495;48.116;11.676;2023-09-08T08:24:24;95886.56;;;21.73;100.00
26937;BME280;14495;48.116;11.676;2023-09-08T08:26:50;95882.72;;;22.01;100.00
26937;BME280;14495;48.116;11.676;2023-09-08T08:29:17;95889.44;;;22.22;100.00
26937;BME280;14495;48.116;11.676;2023-09-08T08:31:42;95879.13;;;22.19;100.00
26937;BME280;14495;48.116;11.676;2023-09-08T08:34:07;95880.72;;;21.95;100.00
26937;BME280;14495;48.116;11.676;2023-09-08T08:36:34;95888.44;;;22.15;100.00
26937;BME280;14495;48.116;11.676;2023-09-08T08:38:59;95879.81;;;22.21;100.00
26937;BME280;14495;48.116;11.676;2023-09-08T08:41:28;95879.88;;;22.29;100.00
26937;BME280;14495;48.116;11.676;2023-09-08T08:43:55;95878.13;;;22.20;100.00
26937;BME280;14495;48.116;11.676;2023-09-08T08:46:21;95884.97;;;22.23;100.00
26937;BME280;14495;48.116;11.676;2023-09-08T08:48:48;95886.88;;;22.30;100.00
26937;BME280;14495;48.116;11.676;2023-09-08T08:51:17;95880.03;;;22.28;100.00
26937;BME280;14495;48.116;11.676;2023-09-08T08:53:43;95880.06;;;22.36;100.00
26937;BME280;14495;48.116;11.676;2023-09-08T08:56:09;95880.38;;;22.41;100.00
26937;BME280;14495;48.116;11.676;2023-09-08T08:58:37;95879.59;;;22.49;100.00
26937;BME280;14495;48.116;11.676;2023-09-08T09:01:03;95879.59;;;22.65;100.00
26937;BME280;14495;48.116;11.676;2023-09-08T09:03:31;95880.28;;;22.75;100.00
26937;BME280;14495;48.116;11.676;2023-09-08T09:05:56;95869.69;;;23.08;100.00
26937;BME280;14495;48.116;11.676;2023-09-08T09:08:22;95879.13;;;22.94;100.00
26937;BME280;14495;48.116;11.676;2023-09-08T09:10:50;95869.50;;;23.18;100.00
26937;BME280;14495;48.116;11.676;2023-09-08T09:13:16;95872.16;;;23.18;100.00
26937;BME280;14495;48.116;11.676;2023-09-08T09:15:42;95869.09;;;23.54;100.00
26937;BME280;14495;48.116;11.676;2023-09-08T09:18:08;95866.94;;;23.49;100.00
26937;BME280;14495;48.116;11.676;2023-09-08T09:20:34;95868.56;;;23.83;100.00
26937;BME280;14495;48.116;11.676;2023-09-08T09:23:00;95862.56;;;23.73;100.00
26937;BME280;14495;48.116;11.676;2023-09-08T09:25:28;95866.72;;;23.76;100.00
26937;BME280;14495;48.116;11.676;2023-09-08T09:27:55;95863.03;;;23.85;100.00
26937;BME280;14495;48.116;11.676;2023-09-08T09:30:22;95865.16;;;23.98;100.00
26937;BME280;14495;48.116;11.676;2023-09-08T09:32:47;95868.56;;;23.83;100.00
26937;BME280;14495;48.116;11.676;2023-09-08T09:35:15;95863.66;;;24.03;100.00
26937;BME280;14495;48.116;11.676;2023-09-08T09:37:42;95856.00;;;24.31;100.00
26937;BME280;14495;48.116;11.676;2023-09-08T09:40:08;95856.78;;;24.09;100.00
26937;BME280;14495;48.116;11.676;2023-09-08T09:42:40;95854.09;;;24.17;100.00
26937;BME280;14495;48.116;11.676;2023-09-08T09:45:07;95847.22;;;24.46;100.00
26937;BME280;14495;48.116;11.676;2023-09-08T09:47:34;95846.63;;;24.36;100.00
26937;BME280;14495;48.116;11.676;2023-09-08T09:49:59;95843.22;;;23.79;100.00
26937;BME280;14495;48.116;11.676;2023-09-08T09:52:25;95840.94;;;24.39;100.00
26937;BME280;14495;48.116;11.676;2023-09-08T09:54:55;95843.84;;;24.60;100.00
26937;BME280;14495;48.116;11.676;2023-09-08T09:57:22;95844.50;;;24.62;100.00
26937;BME280;14495;48.116;11.676;2023-09-08T09:59:48;95840.16;;;24.84;100.00
26937;BME280;14495;48.116;11.676;2023-09-08T10:02:17;95844.38;;;25.17;100.00
26937;BME280;14495;48.116;11.676;2023-09-08T10:04:47;95841.31;;;25.43;100.00
26937;BME280;14495;48.116;11.676;2023-09-08T10:07:14;95830.47;;;25.21;100.00
26937;BME280;14495;48.116;11.676;2023-09-08T10:09:40;95836.16;;;25.41;100.00
26937;BME280;14495;48.116;11.676;2023-09-08T10:12:08;95837.38;;;25.98;100.00
26937;BME280;14495;48.116;11.676;2023-09-08T10:14:40;95825.03;;;25.97;100.00
26937;BME280;14495;48.116;11.676;2023-09-08T10:17:08;95819.22;;;25.94;100.00
26937;BME280;14495;48.116;11.676;2023-09-08T10:19:37;95834.50;;;26.00;100.00
26937;BME280;14495;48.116;11.676;2023-09-08T10:22:09;95832.63;;;25.85;100.00
26937;BME280;14495;48.116;11.676;2023-09-08T10:24:38;95819.22;;;26.30;100.00
26937;BME280;14495;48.116;11.676;2023-09-08T10:27:08;95822.00;;;26.22;100.00
26937;BME280;14495;48.116;11.676;2023-09-08T10:29:35;95822.78;;;26.52;100.00
26937;BME280;14495;48.116;11.676;2023-09-08T10:32:01;95827.88;;;26.47;100.00
26937;BME280;14495;48.116;11.676;2023-09-08T10:34:30;95821.66;;;26.61;99.78
26937;BME280;14495;48.116;11.676;2023-09-08T10:36:56;95825.88;;;26.71;99.89
26937;BME280;14495;48.116;11.676;2023-09-08T10:39:35;95822.78;;;26.52;94.61
26937;BME280;14495;48.116;11.676;2023-09-08T10:42:25;95821.53;;;26.55;96.10
26937;BME280;14495;48.116;11.676;2023-09-08T10:44:59;95823.81;;;26.73;95.74
26937;BME280;14495;48.116;11.676;2023-09-08T10:47:39;95818.97;;;27.11;93.49
26937;BME280;14495;48.116;11.676;2023-09-08T10:50:05;95817.31;;;26.82;92.89
26937;BME280;14495;48.116;11.676;2023-09-08T10:52:32;95819.03;;;26.68;93.88
26937;BME280;14495;48.116;11.676;2023-09-08T10:54:58;95823.16;;;26.92;93.01
26937;BME280;14495;48.116;11.676;2023-09-08T10:57:25;95823.72;;;27.31;94.78
26937;BME280;14495;48.116;11.676;2023-09-08T11:02:48;95815.50;;;27.67;89.43
26937;BME280;14495;48.116;11.676;2023-09-08T11:05:16;95818.06;;;27.89;87.39
26937;BME280;14495;48.116;11.676;2023-09-08T11:07:43;95818.56;;;27.99;88.73
26937;BME280;14495;48.116;11.676;2023-09-08T11:10:09;95813.44;;;27.69;89.20
26937;BME280;14495;48.116;11.676;2023-09-08T11:12:35;95811.63;;;27.76;89.41
26937;BME280;14495;48.116;11.676;2023-09-08T11:15:03;95818.28;;;27.52;89.87
26937;BME280;14495;48.116;11.676;2023-09-08T11:17:36;95810.03;;;27.54;88.15
26937;BME280;14495;48.116;11.676;2023-09-08T11:20:05;95813.00;;;27.66;89.71
26937;BME280;14495;48.116;11.676;2023-09-08T11:22:34;95819.19;;;27.66;88.24
26937;BME280;14495;48.116;11.676;2023-09-08T11:25:00;95814.84;;;28.00;87.38
26937;BME280;14495;48.116;11.676;2023-09-08T11:27:27;95813.78;;;27.94;84.60
26937;BME280;14495;48.116;11.676;2023-09-08T11:29:56;95813.25;;;28.12;85.30
26937;BME280;14495;48.116;11.676;2023-09-08T11:32:22;95806.94;;;28.40;86.99
26937;BME280;14495;48.116;11.676;2023-09-08T11:34:48;95811.28;;;28.41;82.52
26937;BME280;14495;48.116;11.676;2023-09-08T11:37:16;95815.53;;;28.84;82.67
26937;BME280;14495;48.116;11.676;2023-09-08T11:39:44;95812.00;;;29.03;83.26
26937;BME280;14495;48.116;11.676;2023-09-08T11:42:13;95814.06;;;28.81;84.76
26937;BME280;14495;48.116;11.676;2023-09-08T11:44:39;95816.09;;;28.59;81.89
26937;BME280;14495;48.116;11.676;2023-09-08T11:47:09;95805.09;;;28.47;83.47
26937;BME280;14495;48.116;11.676;2023-09-08T11:49:41;95816.59;;;28.28;81.81
26937;BME280;14495;48.116;11.676;2023-09-08T11:52:06;95810.16;;;28.22;82.01
26937;BME280;14495;48.116;11.676;2023-09-08T11:54:36;95815.34;;;28.17;82.97
26937;BME280;14495;48.116;11.676;2023-09-08T11:57:03;95808.22;;;28.58;79.92
26937;BME280;14495;48.116;11.676;2023-09-08T11:59:32;95804.34;;;28.80;79.58
26937;BME280;14495;48.116;11.676;2023-09-08T12:01:58;95794.00;;;28.64;79.63
26937;BME280;14495;48.116;11.676;2023-09-08T12:04:24;95805.44;;;29.19;80.56
26937;BME280;14495;48.116;11.676;2023-09-08T12:06:52;95801.03;;;28.91;80.25
26937;BME280;14495;48.116;11.676;2023-09-08T12:09:17;95804.81;;;29.17;80.03
26937;BME280;14495;48.116;11.676;2023-09-08T12:11:43;95804.78;;;28.97;78.73
26937;BME280;14495;48.116;11.676;2023-09-08T12:14:13;95802.31;;;29.16;76.82
26937;BME280;14495;48.116;11.676;2023-09-08T12:16:40;95804.16;;;29.48;78.04
26937;BME280;14495;48.116;11.676;2023-09-08T12:19:07;95799.63;;;29.36;78.61
26937;BME280;14495;48.116;11.676;2023-09-08T12:21:36;95793.81;;;29.12;78.32
26937;BME280;14495;48.116;11.676;2023-09-08T12:24:18;95797.72;;;28.96;79.67
26937;BME280;14495;48.116;11.676;2023-09-08T12:26:43;95797.31;;;28.92;78.96
26937;BME280;14495;48.116;11.676;2023-09-08T12:29:12;95791.94;;;28.86;77.49
26937;BME280;14495;48.116;11.676;2023-09-08T12:31:38;95795.25;;;28.75;81.71
26937;BME280;14495;48.116;11.676;2023-09-08T12:34:04;95799.81;;;29.01;78.71
26937;BME280;14495;48.116;11.676;2023-09-08T12:36:29;95790.72;;;29.22;76.81
26937;BME280;14495;48.116;11.676;2023-09-08T12:38:57;95795.50;;;29.26;77.74
26937;BME280;14495;48.116;11.676;2023-09-08T12:41:22;95794.44;;;29.14;77.41
26937;BME280;14495;48.116;11.676;2023-09-08T12:43:48;95784.09;;;29.24;78.24
26937;BME280;14495;48.116;11.676;2023-09-08T12:46:18;95801.00;;;28.65;78.29